createdAt,value
2019-04-06T00:01:31.041Z,72.60
2019-04-06T00:03:59.896Z,73.40
2019-04-06T00:06:28.776Z,73.60
2019-04-06T00:08:57.641Z,73.70
2019-04-06T00:11:26.470Z,73.60
2019-04-06T00:13:55.330Z,73.70
2019-04-06T00:16:24.136Z,73.50
2019-04-06T00:18:53.015Z,73.10
2019-04-06T00:21:22.379Z,73.20
2019-04-06T00:23:51.631Z,73.20
2019-04-06T00:26:20.488Z,73.10
2019-04-06T00:28:49.376Z,74.00
2019-04-06T00:31:22.751Z,74.40
2019-04-06T00:33:51.576Z,74.30
2019-04-06T00:36:20.390Z,74.50
2019-04-06T00:38:49.886Z,74.40
2019-04-06T00:41:18.803Z,74.30
2019-04-06T00:43:47.631Z,74.50
2019-04-06T00:46:16.545Z,74.50
2019-04-06T00:48:45.460Z,74.50
2019-04-06T00:51:14.306Z,74.40
2019-04-06T00:53:43.148Z,73.80
2019-04-06T00:56:11.990Z,74.00
2019-04-06T00:58:40.801Z,74.20
2019-04-06T01:01:09.639Z,73.70
2019-04-06T01:03:38.504Z,73.80
2019-04-06T01:06:07.396Z,74.10
2019-04-06T01:08:36.206Z,74.20
2019-04-06T01:11:05.210Z,74.60
2019-04-06T01:13:34.097Z,75.30
2019-04-06T01:16:02.962Z,75.50
2019-04-06T01:18:34.561Z,75.00
2019-04-06T01:21:03.515Z,74.50
2019-04-06T01:23:32.650Z,73.80
2019-04-06T01:26:07.183Z,73.70
2019-04-06T01:28:32.305Z,73.80
2019-04-06T01:31:01.198Z,73.80
2019-04-06T01:33:33.207Z,74.20
2019-04-06T01:36:02.077Z,74.70
2019-04-06T01:38:30.963Z,74.60
2019-04-06T01:40:59.948Z,74.30
2019-04-06T01:43:28.836Z,74.00
2019-04-06T01:45:57.707Z,73.90
2019-04-06T01:48:26.554Z,74.70
2019-04-06T01:50:56.767Z,75.10
2019-04-06T01:53:25.846Z,75.60
2019-04-06T01:55:56.201Z,75.70
2019-04-06T01:58:26.123Z,75.40
2019-04-06T02:00:56.676Z,75.70
2019-04-06T02:03:25.554Z,75.90
2019-04-06T02:05:54.573Z,75.30
2019-04-06T02:08:23.451Z,74.80
2019-04-06T02:10:52.295Z,75.10
2019-04-06T02:13:23.481Z,75.50
2019-04-06T02:15:52.235Z,75.10
2019-04-06T02:18:21.091Z,75.00
2019-04-06T02:20:49.944Z,75.20
2019-04-06T02:23:18.948Z,75.70
2019-04-06T02:25:50.519Z,77.10
2019-04-06T02:28:19.347Z,78.00
2019-04-06T02:30:58.808Z,78.30
2019-04-06T02:33:29.215Z,78.60
2019-04-06T02:36:00.057Z,78.50
2019-04-06T02:38:36.598Z,78.20
2019-04-06T02:41:09.920Z,78.10
2019-04-06T02:43:40.544Z,78.40
2019-04-06T02:46:09.493Z,78.10
2019-04-06T02:48:38.319Z,78.30
2019-04-06T02:51:07.901Z,78.40
2019-04-06T02:53:37.771Z,78.60
2019-04-06T02:56:06.603Z,78.70
2019-04-06T02:58:35.423Z,79.10
2019-04-06T03:01:04.239Z,79.60
2019-04-06T03:03:33.057Z,80.00
2019-04-06T03:06:01.845Z,80.40
2019-04-06T03:08:30.625Z,80.00
2019-04-06T03:10:59.495Z,80.20
2019-04-06T03:13:28.288Z,79.70
2019-04-06T03:15:58.197Z,79.70
2019-04-06T03:18:27.038Z,79.50
2019-04-06T03:20:55.859Z,78.90
2019-04-06T03:23:25.700Z,79.00
2019-04-06T03:25:54.808Z,79.10
2019-04-06T03:28:23.860Z,79.00
2019-04-06T03:30:52.674Z,79.40
2019-04-06T03:33:21.544Z,80.00
2019-04-06T03:35:51.401Z,79.60
2019-04-06T03:38:20.695Z,79.40
2019-04-06T03:40:49.886Z,79.10
2019-04-06T03:43:18.912Z,79.00
2019-04-06T03:45:47.772Z,79.30
2019-04-06T03:48:16.533Z,79.70
2019-04-06T03:50:45.442Z,78.90
2019-04-06T03:53:14.187Z,78.00
2019-04-06T03:55:43.115Z,78.40
2019-04-06T03:58:11.892Z,78.60
2019-04-06T04:00:40.675Z,79.00
2019-04-06T04:03:10.329Z,79.30
2019-04-06T04:05:40.538Z,79.80
2019-04-06T04:08:09.422Z,80.00
2019-04-06T04:10:39.027Z,79.60
2019-04-06T04:13:07.951Z,79.60
2019-04-06T04:15:36.788Z,79.70
2019-04-06T04:18:06.210Z,80.60
2019-04-06T04:20:35.272Z,80.60
2019-04-06T04:23:04.389Z,80.30
2019-04-06T04:25:33.315Z,80.50
2019-04-06T04:28:02.089Z,80.30
2019-04-06T04:30:33.982Z,79.70
2019-04-06T04:33:02.736Z,79.30
2019-04-06T04:35:31.569Z,79.90
2019-04-06T04:38:00.365Z,80.30
2019-04-06T04:40:29.125Z,80.90
2019-04-06T04:42:57.957Z,80.70
2019-04-06T04:45:26.730Z,80.80
2019-04-06T04:47:56.654Z,80.80
2019-04-06T04:50:26.501Z,80.80
2019-04-06T04:52:55.322Z,80.30
2019-04-06T04:55:24.739Z,79.80
2019-04-06T04:57:53.595Z,80.20
2019-04-06T05:00:22.437Z,80.10
2019-04-06T05:02:51.313Z,80.90
2019-04-06T05:05:20.154Z,81.80
2019-04-06T05:07:49.043Z,82.70
2019-04-06T05:10:19.101Z,81.50
2019-04-06T05:12:48.284Z,81.40
2019-04-06T05:15:22.895Z,81.30
2019-04-06T05:17:51.659Z,81.70
2019-04-06T05:20:20.533Z,82.20
2019-04-06T05:22:49.312Z,82.50
2019-04-06T05:25:18.188Z,82.60
2019-04-06T05:27:52.739Z,82.50
2019-04-06T05:30:18.407Z,82.40
2019-04-06T05:32:47.239Z,82.70
2019-04-06T05:35:16.000Z,82.70
2019-04-06T05:37:44.811Z,82.40
2019-04-06T05:40:13.599Z,82.30
2019-04-06T05:42:43.046Z,82.50
2019-04-06T05:45:11.967Z,81.90
2019-04-06T05:47:40.848Z,81.80
2019-04-06T05:50:10.359Z,81.80
2019-04-06T05:52:39.228Z,82.40
2019-04-06T05:55:08.223Z,81.90
2019-04-06T05:57:37.511Z,80.90
2019-04-06T06:00:10.144Z,80.70
2019-04-06T06:02:41.600Z,80.10
2019-04-06T06:05:10.399Z,80.20
2019-04-06T06:07:40.180Z,81.10
2019-04-06T06:10:08.957Z,80.50
2019-04-06T06:12:37.852Z,80.50
2019-04-06T06:15:07.711Z,79.60
2019-04-06T06:17:36.684Z,79.10
2019-04-06T06:20:07.176Z,79.10
2019-04-06T06:22:35.993Z,79.50
2019-04-06T06:25:07.479Z,80.20
2019-04-06T06:27:36.292Z,80.00
2019-04-06T06:30:08.106Z,79.70
2019-04-06T06:32:36.902Z,79.80
2019-04-06T06:35:06.508Z,80.20
2019-04-06T06:37:35.267Z,80.10
2019-04-06T06:40:06.459Z,80.00
2019-04-06T06:42:35.339Z,79.70
2019-04-06T06:45:05.079Z,79.40
2019-04-06T06:47:33.972Z,78.90
2019-04-06T06:50:03.027Z,78.90
2019-04-06T06:52:31.771Z,78.50
2019-04-06T06:55:00.742Z,78.80
2019-04-06T06:57:29.538Z,79.10
2019-04-06T06:59:58.315Z,78.40
2019-04-06T07:02:27.222Z,77.70
2019-04-06T07:04:56.059Z,78.10
2019-04-06T07:07:24.930Z,78.50
2019-04-06T07:10:04.184Z,78.10
2019-04-06T07:12:24.215Z,78.40
2019-04-06T07:14:53.251Z,78.20
2019-04-06T07:17:23.957Z,77.60
2019-04-06T07:19:52.825Z,77.20
2019-04-06T07:22:21.669Z,75.50
2019-04-06T07:24:50.551Z,73.90
2019-04-06T07:27:19.425Z,73.40
2019-04-06T07:29:48.332Z,74.10
2019-04-06T07:32:17.173Z,74.60
2019-04-06T07:34:46.042Z,74.30
2019-04-06T07:37:14.843Z,73.90
2019-04-06T07:39:43.769Z,73.90
2019-04-06T07:42:12.667Z,73.90
2019-04-06T07:44:41.472Z,73.90
2019-04-06T07:47:22.014Z,73.40
2019-04-06T07:49:50.782Z,73.40
2019-04-06T07:52:19.704Z,72.00
2019-04-06T07:54:50.878Z,71.30
2019-04-06T07:57:19.949Z,70.80
2019-04-06T07:59:49.165Z,71.30
2019-04-06T08:02:18.121Z,71.70
2019-04-06T08:04:47.109Z,70.60
2019-04-06T08:07:16.010Z,71.20
2019-04-06T08:09:45.024Z,71.00
2019-04-06T08:12:13.941Z,70.80
2019-04-06T08:14:42.827Z,70.40
2019-04-06T08:17:11.871Z,71.50
2019-04-06T08:19:40.744Z,72.70
2019-04-06T08:22:09.774Z,72.10
2019-04-06T08:24:38.688Z,71.70
2019-04-06T08:27:07.886Z,71.10
2019-04-06T08:29:37.072Z,71.00
2019-04-06T08:32:06.009Z,70.70
2019-04-06T08:34:42.444Z,70.90
2019-04-06T08:37:13.930Z,70.60
2019-04-06T08:39:47.336Z,69.10
2019-04-06T08:42:15.524Z,68.50
2019-04-06T08:44:53.889Z,67.20
2019-04-06T08:47:22.933Z,65.90
2019-04-06T08:49:51.829Z,64.40
2019-04-06T08:52:21.076Z,62.80
2019-04-06T08:54:50.374Z,61.00
2019-04-06T08:57:19.482Z,59.40
2019-04-06T08:59:48.573Z,57.90
2019-04-06T09:02:17.576Z,55.90
2019-04-06T09:04:46.719Z,55.30
2019-04-06T09:07:15.917Z,55.10
2019-04-06T09:09:44.994Z,54.20
2019-04-06T09:12:14.358Z,53.80
2019-04-06T09:14:43.301Z,51.50
2019-04-06T09:17:12.330Z,49.90
2019-04-06T09:19:41.252Z,48.50
2019-04-06T09:22:10.459Z,46.40
2019-04-06T09:24:39.570Z,44.10
2019-04-06T09:27:25.595Z,43.20
2019-04-06T09:29:45.952Z,41.60
2019-04-06T09:32:16.389Z,39.80
2019-04-06T09:34:55.528Z,39.00
2019-04-06T09:37:28.021Z,40.20
2019-04-06T09:39:56.945Z,38.80
2019-04-06T09:42:58.042Z,38.10
2019-04-06T09:45:35.873Z,39.00
2019-04-06T09:48:06.490Z,39.90
2019-04-06T09:50:54.763Z,42.40
2019-04-06T09:53:37.344Z,44.30
2019-04-06T09:56:34.353Z,45.70
2019-04-06T09:58:54.186Z,44.90
2019-04-06T10:05:18.444Z,42.30
2019-04-06T10:07:50.335Z,42.50
2019-04-06T10:10:24.261Z,42.90
2019-04-06T10:13:10.656Z,43.80
2019-04-06T10:15:53.322Z,43.30
2019-04-06T10:18:40.690Z,42.40
2019-04-06T10:21:27.618Z,40.00
2019-04-06T10:24:09.558Z,40.20
2019-04-06T10:27:19.160Z,38.80
2019-04-06T10:29:50.235Z,37.10
2019-04-06T10:32:23.842Z,35.00
2019-04-06T10:35:03.394Z,36.00
2019-04-06T10:37:45.713Z,39.10
2019-04-06T10:40:20.593Z,40.20
2019-04-06T10:42:51.156Z,38.60
2019-04-06T10:45:25.887Z,39.20
2019-04-06T10:48:48.801Z,40.50
2019-04-06T10:51:35.435Z,42.80
2019-04-06T10:54:09.933Z,42.70
2019-04-06T10:56:42.337Z,41.30
2019-04-06T10:59:12.888Z,42.20
2019-04-06T11:01:43.322Z,42.80
2019-04-06T11:04:13.979Z,43.20
2019-04-06T11:06:47.139Z,43.60
2019-04-06T11:09:34.005Z,44.50
2019-04-06T11:12:22.414Z,44.70
2019-04-06T11:15:09.190Z,46.60
2019-04-06T11:17:41.117Z,45.20
2019-04-06T11:20:15.453Z,44.30
2019-04-06T11:22:51.499Z,44.60
2019-04-06T11:25:27.776Z,42.70
2019-04-06T11:28:22.899Z,40.20
2019-04-06T11:31:16.888Z,38.90
2019-04-06T11:33:58.318Z,36.70
2019-04-06T11:36:32.338Z,35.50
2019-04-06T11:39:17.840Z,36.70
2019-04-06T11:41:54.563Z,39.00
2019-04-06T11:44:32.996Z,41.30
2019-04-06T11:47:19.979Z,41.30
2019-04-06T11:50:06.046Z,41.10
2019-04-06T11:55:37.765Z,40.00
2019-04-06T11:58:14.018Z,38.00
2019-04-06T12:01:02.621Z,36.70
2019-04-06T12:03:54.248Z,36.50
2019-04-06T12:09:43.691Z,40.00
2019-04-06T12:12:32.973Z,41.00
2019-04-06T12:15:05.090Z,41.40
2019-04-06T12:17:57.673Z,41.00
2019-04-06T12:20:47.691Z,40.80
2019-04-06T12:23:32.650Z,40.50
2019-04-06T12:26:13.718Z,40.90
2019-04-06T12:29:01.985Z,40.10
2019-04-06T12:31:35.659Z,39.50
2019-04-06T12:34:22.668Z,40.40
2019-04-06T12:36:55.327Z,40.90
2019-04-06T12:39:51.857Z,41.10
2019-04-06T12:42:19.467Z,40.30
2019-04-06T12:44:58.963Z,40.50
2019-04-06T12:47:36.513Z,41.70
2019-04-06T12:50:17.776Z,42.60
2019-04-06T12:53:07.157Z,43.10
2019-04-06T12:55:56.569Z,42.50
2019-04-06T12:58:39.653Z,41.20
2019-04-06T13:01:15.856Z,40.50
2019-04-06T13:03:46.874Z,38.30
2019-04-06T13:06:33.729Z,37.90
2019-04-06T13:09:22.387Z,36.00
2019-04-06T13:12:09.555Z,34.90
2019-04-06T13:14:45.757Z,35.40
2019-04-06T13:17:19.856Z,35.80
2019-04-06T13:19:50.671Z,34.80
2019-04-06T13:22:21.948Z,36.60
2019-04-06T13:24:52.667Z,36.10
2019-04-06T13:27:27.444Z,36.10
2019-04-06T13:30:14.407Z,34.90
2019-04-06T13:32:52.572Z,35.50
2019-04-06T13:35:29.673Z,35.30
2019-04-06T13:38:12.298Z,35.60
2019-04-06T13:40:52.757Z,35.80
2019-04-06T13:43:25.321Z,36.70
2019-04-06T13:46:05.325Z,37.20
2019-04-06T13:48:35.890Z,37.20
2019-04-06T13:51:06.340Z,35.40
2019-04-06T13:53:36.843Z,35.50
2019-04-06T13:56:09.693Z,34.10
2019-04-06T13:59:01.718Z,33.90
2019-04-06T14:04:41.019Z,33.70
2019-04-06T14:07:11.672Z,34.40
2019-04-06T14:09:45.021Z,33.40
2019-04-06T14:12:15.502Z,33.70
2019-04-06T14:15:04.044Z,35.40
2019-04-06T14:17:59.054Z,35.20
2019-04-06T14:20:33.667Z,35.00
2019-04-06T14:23:20.150Z,35.30
2019-04-06T14:25:53.002Z,36.30
2019-04-06T14:28:37.979Z,36.00
2019-04-06T14:31:24.430Z,34.90
2019-04-06T14:33:59.463Z,34.80
2019-04-06T14:37:01.644Z,35.10
2019-04-06T14:39:55.414Z,35.40
2019-04-06T14:42:24.991Z,36.50
2019-04-06T14:44:55.750Z,38.20
2019-04-06T14:47:45.176Z,39.60
2019-04-06T14:50:16.224Z,40.00
2019-04-06T14:52:57.493Z,40.90
2019-04-06T14:55:31.407Z,41.50
2019-04-06T14:58:18.666Z,41.80
2019-04-06T15:00:54.984Z,41.80
2019-04-06T15:03:41.766Z,42.80
2019-04-06T15:06:30.297Z,43.40
2019-04-06T15:09:13.074Z,44.10
2019-04-06T15:12:02.961Z,43.80
2019-04-06T15:14:41.009Z,44.00
2019-04-06T15:17:15.989Z,44.30
2019-04-06T15:19:46.606Z,45.20
2019-04-06T15:22:33.167Z,45.00
2019-04-06T15:28:10.000Z,44.60
2019-04-06T15:30:51.889Z,45.70
2019-04-06T15:33:23.693Z,46.20
2019-04-06T15:35:58.056Z,46.50
2019-04-06T15:38:34.349Z,46.90
2019-04-06T15:41:21.271Z,47.20
2019-04-06T15:44:18.713Z,47.00
2019-04-06T15:54:15.904Z,46.40
2019-04-06T15:56:51.689Z,45.90
2019-04-06T15:59:25.505Z,46.20
2019-04-06T16:02:03.003Z,47.20
2019-04-06T16:04:51.800Z,45.80
2019-04-06T16:07:35.581Z,45.70
2019-04-06T16:10:16.919Z,45.10
2019-04-06T16:12:50.592Z,45.10
2019-04-06T16:15:27.151Z,44.90
2019-04-06T16:18:03.645Z,45.30
2019-04-06T16:24:13.762Z,47.10
2019-04-06T16:30:36.809Z,47.00
2019-04-06T16:33:30.964Z,46.50
2019-04-06T16:36:04.503Z,45.80
2019-04-06T16:39:16.257Z,45.50
2019-04-06T16:45:17.303Z,46.40
2019-04-06T16:47:48.852Z,47.40
2019-04-06T16:50:22.540Z,47.30
2019-04-06T16:52:59.144Z,47.70
2019-04-06T16:55:29.589Z,47.70
2019-04-06T16:58:00.414Z,47.60
2019-04-06T17:00:47.311Z,47.90
2019-04-06T17:03:24.138Z,47.60
2019-04-06T17:06:13.759Z,48.00
2019-04-06T17:08:50.036Z,47.20
2019-04-06T17:11:36.002Z,47.30
2019-04-06T17:14:16.266Z,47.70
2019-04-06T17:16:46.797Z,47.90
2019-04-06T17:19:28.062Z,47.60
2019-04-06T17:22:03.216Z,47.50
2019-04-06T17:24:36.780Z,47.10
2019-04-06T17:27:09.999Z,47.30
2019-04-06T17:29:42.038Z,47.80
2019-04-06T17:32:35.317Z,47.90
2019-04-06T17:35:05.365Z,47.80
2019-04-06T17:37:43.520Z,47.40
2019-04-06T17:40:14.152Z,47.60
2019-04-06T17:42:49.496Z,47.90
2019-04-06T17:45:22.426Z,47.90
2019-04-06T17:48:00.340Z,48.00
2019-04-06T17:50:42.930Z,48.30
2019-04-06T17:53:20.148Z,48.80
2019-04-06T17:56:02.774Z,49.30
2019-04-06T17:58:36.069Z,49.50
2019-04-06T18:01:16.221Z,49.40
2019-04-06T18:04:06.480Z,49.70
2019-04-06T18:06:39.765Z,49.70
2019-04-06T18:09:13.496Z,50.00
2019-04-06T18:11:58.722Z,50.40
2019-04-06T18:14:28.001Z,50.40
2019-04-06T18:16:58.315Z,50.50
2019-04-06T18:19:27.250Z,50.80
2019-04-06T18:22:02.164Z,50.90
2019-04-06T18:24:31.162Z,51.20
2019-04-06T18:27:00.013Z,51.30
2019-04-06T18:29:28.816Z,51.20
2019-04-06T18:31:59.284Z,50.20
2019-04-06T18:34:28.517Z,50.60
2019-04-06T18:36:59.094Z,50.90
2019-04-06T18:39:28.383Z,51.00
2019-04-06T18:41:57.263Z,51.20
2019-04-06T18:44:26.270Z,50.70
2019-04-06T18:46:55.147Z,50.50
2019-04-06T18:49:23.929Z,50.80
2019-04-06T18:51:52.907Z,51.20
2019-04-06T18:54:22.168Z,51.90
2019-04-06T18:56:51.301Z,52.00
2019-04-06T18:59:20.618Z,51.80
2019-04-06T19:01:52.093Z,52.00
2019-04-06T19:04:21.350Z,52.60
2019-04-06T19:06:50.450Z,52.70
2019-04-06T19:09:23.445Z,52.60
2019-04-06T19:11:55.547Z,52.30
2019-04-06T19:14:20.466Z,52.00
2019-04-06T19:16:49.318Z,52.30
2019-04-06T19:19:18.243Z,52.10
2019-04-06T19:21:47.151Z,52.20
2019-04-06T19:24:15.927Z,52.30
2019-04-06T19:26:44.964Z,52.60
2019-04-06T19:29:17.247Z,53.10
2019-04-06T19:31:47.891Z,53.00
2019-04-06T19:34:18.790Z,53.40
2019-04-06T19:36:47.730Z,53.30
2019-04-06T19:39:19.775Z,53.90
2019-04-06T19:41:49.439Z,53.00
2019-04-06T19:44:18.250Z,53.40
2019-04-06T19:46:49.054Z,53.50
2019-04-06T19:49:20.538Z,53.80
2019-04-06T19:51:49.532Z,53.70
2019-04-06T19:54:18.796Z,53.90
2019-04-06T19:56:47.673Z,54.10
2019-04-06T19:59:16.469Z,54.40
2019-04-06T20:01:45.777Z,54.50
2019-04-06T20:04:15.052Z,54.40
2019-04-06T20:06:43.970Z,54.50
2019-04-06T20:09:13.346Z,54.50
2019-04-06T20:11:42.363Z,55.00
2019-04-06T20:14:11.171Z,55.20
2019-04-06T20:16:44.128Z,55.50
2019-04-06T20:19:15.570Z,56.00
2019-04-06T20:21:46.403Z,55.80
2019-04-06T20:24:15.336Z,55.90
2019-04-06T20:26:44.158Z,55.80
2019-04-06T20:29:13.024Z,55.50
2019-04-06T20:31:41.845Z,55.00
2019-04-06T20:34:10.845Z,55.00
2019-04-06T20:36:39.671Z,55.00
2019-04-06T20:39:11.294Z,54.60
2019-04-06T20:41:40.124Z,54.60
2019-04-06T20:44:09.187Z,54.80
2019-04-06T20:46:38.015Z,55.10
2019-04-06T20:49:06.835Z,55.50
2019-04-06T20:51:35.777Z,55.90
2019-04-06T20:54:04.638Z,55.60
2019-04-06T20:56:35.065Z,55.80
2019-04-06T20:59:03.993Z,55.20
2019-04-06T21:01:32.725Z,55.40
2019-04-06T21:04:03.112Z,55.20
2019-04-06T21:06:32.454Z,55.40
2019-04-06T21:09:01.410Z,55.40
2019-04-06T21:11:30.424Z,55.60
2019-04-06T21:13:59.503Z,56.20
2019-04-06T21:16:28.889Z,56.00
2019-04-06T21:18:57.772Z,55.90
2019-04-06T21:21:26.979Z,55.90
2019-04-06T21:23:56.131Z,56.10
2019-04-06T21:26:24.945Z,56.30
2019-04-06T21:28:53.797Z,56.30
2019-04-06T21:31:23.148Z,56.10
2019-04-06T21:33:53.708Z,56.40
2019-04-06T21:36:22.732Z,57.20
2019-04-06T21:38:51.587Z,57.10
2019-04-06T21:41:20.774Z,57.10
2019-04-06T21:43:49.756Z,57.10
2019-04-06T21:46:19.610Z,57.60
2019-04-06T21:48:48.985Z,57.70
2019-04-06T21:51:18.034Z,58.30
2019-04-06T21:53:47.082Z,58.60
2019-04-06T21:56:16.012Z,58.80
2019-04-06T21:58:44.793Z,58.90
2019-04-06T22:01:16.401Z,58.70
2019-04-06T22:03:45.692Z,58.70
2019-04-06T22:06:14.562Z,58.80
2019-04-06T22:08:43.382Z,58.80
2019-04-06T22:11:12.222Z,59.40
2019-04-06T22:13:41.177Z,60.00
2019-04-06T22:16:10.076Z,60.30
2019-04-06T22:18:39.432Z,60.10
2019-04-06T22:21:08.335Z,59.80
2019-04-06T22:23:42.288Z,59.70
2019-04-06T22:26:08.125Z,59.80
2019-04-06T22:28:37.566Z,60.10
2019-04-06T22:31:06.591Z,59.90
2019-04-06T22:33:35.474Z,59.70
2019-04-06T22:36:11.134Z,59.70
2019-04-06T22:38:36.898Z,59.80
2019-04-06T22:41:07.153Z,60.20
2019-04-06T22:43:36.335Z,60.50
2019-04-06T22:46:05.392Z,60.70
2019-04-06T22:48:34.685Z,60.60
2019-04-06T22:51:05.687Z,60.70
2019-04-06T22:53:34.812Z,61.00
2019-04-06T22:56:04.419Z,61.50
2019-04-06T22:58:33.441Z,61.60
2019-04-06T23:01:03.912Z,61.50
2019-04-06T23:03:37.234Z,61.60
2019-04-06T23:06:12.910Z,61.70
2019-04-06T23:08:42.282Z,61.80
2019-04-06T23:11:11.676Z,61.80
2019-04-06T23:13:40.707Z,62.70
2019-04-06T23:16:09.608Z,62.40
2019-04-06T23:18:38.954Z,62.90
2019-04-06T23:21:08.203Z,63.10
2019-04-06T23:23:37.007Z,63.50
2019-04-06T23:26:05.879Z,63.80
2019-04-06T23:28:34.778Z,63.60
2019-04-06T23:31:04.047Z,63.50
2019-04-06T23:33:33.060Z,63.60
2019-04-06T23:36:02.163Z,63.70
2019-04-06T23:38:31.165Z,64.40
2019-04-06T23:41:00.243Z,64.20
2019-04-06T23:43:29.573Z,64.20
2019-04-06T23:45:59.557Z,64.20
2019-04-06T23:48:28.542Z,64.00
2019-04-06T23:50:57.464Z,64.60
2019-04-06T23:53:26.496Z,64.40
2019-04-06T23:55:56.552Z,64.50
2019-04-06T23:58:25.688Z,64.60
